Sioux — NJOV — position and weather

sailwx.info

Track history (hours):
 
Tides and Currents Weather Stations Pressure Air Temp Water Temp Dewpoint Dewpoint Depression Visibility Wind Speed Wind Dir Waves Ship Positions

Sioux

Last reported at 2017-Nov-15 23:06 UTC. Time now 2017-Nov-18 01:06 UTC.
Position N 32°40' W 117°08'.

Length 69 m; draft 4.4 m.

Type: Diving. MMSI: 367884000.

Date/timePositionNaut miles runAvg speedWind from/ knotsBaromVisibWave heightAir tempDewpointWater temp
2017-Nov-15 23:06N 32°40' W 117°08'1 6.6
2017-Nov-15 22:59N 32°41' W 117°08'5 9.0
2017-Nov-15 22:28N 32°42' W 117°13'510.3
2017-Nov-15 22:00N 32°38' W 117°13'3 5.1
2017-Nov-15 21:23N 32°35' W 117°12'1 1.3
2017-Nov-15 20:57N 32°35' W 117°11'1 0.8
2017-Nov-15 19:58N 32°35' W 117°10'0 0.5
2017-Nov-15 19:30N 32°35' W 117°10'7 0.2
2017-Nov-13 23:57N 32°42' W 117°10'  
2017-Nov-08 23:36N 32°43' W 117°12'1 9.9
2017-Nov-08 23:30N 32°43' W 117°13'5 7.4
2017-Nov-08 22:48N 32°38' W 117°14'2 6.2
2017-Nov-08 22:31N 32°38' W 117°16'2 3.8
2017-Nov-08 22:00N 32°39' W 117°18'0 0.1
2017-Nov-08 21:30N 32°39' W 117°18'0 0.6
2017-Nov-08 20:41N 32°39' W 117°18'0 0.1
2017-Nov-08 20:29N 32°39' W 117°18'0 0.0
2017-Nov-08 17:05N 32°39' W 117°18'0 0.0
2017-Nov-08 16:44N 32°39' W 117°18'0 0.0
2017-Nov-08 16:26N 32°39' W 117°18'0 0.0
2017-Nov-08 15:59N 32°39' W 117°18'0 0.0
2017-Nov-08 15:29N 32°39' W 117°18'0 0.0
2017-Nov-08 14:47N 32°39' W 117°18'0 0.0
2017-Nov-08 14:29N 32°39' W 117°18'0 0.0
2017-Nov-08 13:59N 32°39' W 117°18'0 0.1
2017-Nov-08 13:29N 32°39' W 117°18'0 0.0
2017-Nov-08 12:44N 32°39' W 117°18'0 0.0
2017-Nov-08 12:26N 32°39' W 117°18'0 0.0
2017-Nov-08 11:59N 32°39' W 117°18'0 0.1
2017-Nov-08 11:29N 32°39' W 117°18'0 0.1
2017-Nov-08 10:59N 32°39' W 117°18'0 0.0
2017-Nov-08 10:29N 32°39' W 117°18'0 0.0
2017-Nov-08 09:59N 32°39' W 117°18'0 0.1
2017-Nov-08 09:26N 32°39' W 117°18'0 0.0
2017-Nov-08 08:59N 32°39' W 117°18'0 0.0
2017-Nov-08 08:29N 32°39' W 117°18'0 0.0
2017-Nov-08 07:59N 32°39' W 117°18'0 0.0
2017-Nov-08 07:26N 32°39' W 117°18'0 0.0
2017-Nov-08 06:56N 32°39' W 117°18'0 0.0
2017-Nov-08 06:26N 32°39' W 117°18'0 0.1
2017-Nov-08 05:59N 32°39' W 117°18'0 0.1
2017-Nov-08 05:29N 32°39' W 117°18'0 0.0
2017-Nov-08 04:59N 32°39' W 117°18'0 0.1
2017-Nov-08 04:29N 32°39' W 117°18'0 0.1
2017-Nov-08 03:59N 32°39' W 117°18'0 0.0
2017-Nov-08 03:29N 32°39' W 117°18'0 0.1
2017-Nov-08 02:59N 32°39' W 117°18'0 0.0
2017-Nov-07 23:38N 32°39' W 117°18'0 0.0
2017-Nov-07 23:14N 32°39' W 117°18'0 0.0
2017-Nov-07 22:53N 32°39' W 117°18'0 0.0
2017-Nov-07 22:29N 32°39' W 117°18'0 0.0
2017-Nov-07 21:56N 32°39' W 117°18'0 0.0
2017-Nov-07 21:26N 32°39' W 117°18'0 0.0
2017-Nov-07 20:59N 32°39' W 117°18'0 0.0
2017-Nov-07 20:29N 32°39' W 117°18'0 0.0
2017-Nov-07 18:53N 32°39' W 117°18'0 0.0
2017-Nov-07 17:11N 32°39' W 117°18'0 0.0
2017-Nov-07 16:53N 32°39' W 117°18'0 0.0
2017-Nov-07 16:20N 32°39' W 117°18'0 0.0
2017-Nov-07 15:41N 32°39' W 117°18'0 0.0
2017-Nov-07 15:11N 32°39' W 117°18'0 0.0
2017-Nov-07 14:56N 32°39' W 117°18'0 0.0
2017-Nov-07 14:26N 32°39' W 117°18'0 0.0
2017-Nov-07 13:17N 32°39' W 117°18'0 0.0
2017-Nov-07 12:56N 32°39' W 117°18'0 0.0
2017-Nov-07 11:53N 32°39' W 117°18'0 0.0
2017-Nov-07 11:20N 32°39' W 117°18'0 0.0
2017-Nov-07 10:59N 32°39' W 117°18'0 0.0
2017-Nov-07 10:29N 32°39' W 117°18'0 0.0
2017-Nov-07 08:47N 32°39' W 117°18'0 0.0
2017-Nov-07 08:29N 32°39' W 117°18'0 0.0
2017-Nov-07 07:59N 32°39' W 117°18'0 0.0
2017-Nov-07 07:20N 32°39' W 117°18'0 0.0
2017-Nov-07 06:59N 32°39' W 117°18'0 0.1
2017-Nov-07 06:29N 32°39' W 117°18'0 0.0
2017-Nov-07 04:02N 32°39' W 117°18'0 0.0
2017-Nov-07 03:59N 32°39' W 117°18'0 0.0
2017-Nov-07 03:29N 32°39' W 117°18'0 0.1
2017-Nov-07 02:56N 32°39' W 117°18'0 0.0
2017-Nov-07 02:29N 32°39' W 117°18'0 0.0
2017-Nov-07 01:53N 32°39' W 117°18'0 0.0
2017-Nov-07 01:26N 32°39' W 117°18'0 0.0
2017-Nov-07 00:56N 32°39' W 117°18'0 0.0
2017-Nov-07 00:17N 32°39' W 117°18'0 0.0
2017-Nov-06 23:59N 32°39' W 117°18'0 0.0
2017-Nov-06 23:20N 32°39' W 117°18'0 0.1
2017-Nov-06 23:00N 32°39' W 117°18'0 0.1
2017-Nov-06 22:31N 32°39' W 117°18'0 0.2
2017-Nov-06 22:00N 32°39' W 117°18'0 0.8
2017-Nov-06 21:30N 32°39' W 117°18'1 1.1
2017-Nov-06 20:57N 32°39' W 117°19'1 2.4
2017-Nov-06 20:30N 32°39' W 117°18'  
Track history (hours):
 
Tides and Currents Weather Stations Pressure Air Temp Water Temp Dewpoint Dewpoint Depression Visibility Wind Speed Wind Dir Waves Ship Positions

Sioux

Last reported at 2017-Nov-15 23:06 UTC. Time now 2017-Nov-18 01:06 UTC.
Position N 32°40' W 117°08'.

Length 69 m; draft 4.4 m.

Type: Diving. MMSI: 367884000.

Date/timePositionNaut miles runAvg speedWind from/ knotsBaromVisibWave heightAir tempDewpointWater temp
2017-Nov-15 23:06N 32°40' W 117°08'1 6.6
2017-Nov-15 22:59N 32°41' W 117°08'5 9.0
2017-Nov-15 22:28N 32°42' W 117°13'510.3
2017-Nov-15 22:00N 32°38' W 117°13'3 5.1
2017-Nov-15 21:23N 32°35' W 117°12'1 1.3
2017-Nov-15 20:57N 32°35' W 117°11'1 0.8
2017-Nov-15 19:58N 32°35' W 117°10'0 0.5
2017-Nov-15 19:30N 32°35' W 117°10'7 0.2
2017-Nov-13 23:57N 32°42' W 117°10'  
2017-Nov-08 23:36N 32°43' W 117°12'1 9.9
2017-Nov-08 23:30N 32°43' W 117°13'5 7.4
2017-Nov-08 22:48N 32°38' W 117°14'2 6.2
2017-Nov-08 22:31N 32°38' W 117°16'2 3.8
2017-Nov-08 22:00N 32°39' W 117°18'0 0.1
2017-Nov-08 21:30N 32°39' W 117°18'0 0.6
2017-Nov-08 20:41N 32°39' W 117°18'0 0.1
2017-Nov-08 20:29N 32°39' W 117°18'0 0.0
2017-Nov-08 17:05N 32°39' W 117°18'0 0.0
2017-Nov-08 16:44N 32°39' W 117°18'0 0.0
2017-Nov-08 16:26N 32°39' W 117°18'0 0.0
2017-Nov-08 15:59N 32°39' W 117°18'0 0.0
2017-Nov-08 15:29N 32°39' W 117°18'0 0.0
2017-Nov-08 14:47N 32°39' W 117°18'0 0.0
2017-Nov-08 14:29N 32°39' W 117°18'0 0.0
2017-Nov-08 13:59N 32°39' W 117°18'0 0.1
2017-Nov-08 13:29N 32°39' W 117°18'0 0.0
2017-Nov-08 12:44N 32°39' W 117°18'0 0.0
2017-Nov-08 12:26N 32°39' W 117°18'0 0.0
2017-Nov-08 11:59N 32°39' W 117°18'0 0.1
2017-Nov-08 11:29N 32°39' W 117°18'0 0.1
2017-Nov-08 10:59N 32°39' W 117°18'0 0.0
2017-Nov-08 10:29N 32°39' W 117°18'0 0.0
2017-Nov-08 09:59N 32°39' W 117°18'0 0.1
2017-Nov-08 09:26N 32°39' W 117°18'0 0.0
2017-Nov-08 08:59N 32°39' W 117°18'0 0.0
2017-Nov-08 08:29N 32°39' W 117°18'0 0.0
2017-Nov-08 07:59N 32°39' W 117°18'0 0.0
2017-Nov-08 07:26N 32°39' W 117°18'0 0.0
2017-Nov-08 06:56N 32°39' W 117°18'0 0.0
2017-Nov-08 06:26N 32°39' W 117°18'0 0.1
2017-Nov-08 05:59N 32°39' W 117°18'0 0.1
2017-Nov-08 05:29N 32°39' W 117°18'0 0.0
2017-Nov-08 04:59N 32°39' W 117°18'0 0.1
2017-Nov-08 04:29N 32°39' W 117°18'0 0.1
2017-Nov-08 03:59N 32°39' W 117°18'0 0.0
2017-Nov-08 03:29N 32°39' W 117°18'0 0.1
2017-Nov-08 02:59N 32°39' W 117°18'0 0.0
2017-Nov-07 23:38N 32°39' W 117°18'0 0.0
2017-Nov-07 23:14N 32°39' W 117°18'0 0.0
2017-Nov-07 22:53N 32°39' W 117°18'0 0.0
2017-Nov-07 22:29N 32°39' W 117°18'0 0.0
2017-Nov-07 21:56N 32°39' W 117°18'0 0.0
2017-Nov-07 21:26N 32°39' W 117°18'0 0.0
2017-Nov-07 20:59N 32°39' W 117°18'0 0.0
2017-Nov-07 20:29N 32°39' W 117°18'0 0.0
2017-Nov-07 18:53N 32°39' W 117°18'0 0.0
2017-Nov-07 17:11N 32°39' W 117°18'0 0.0
2017-Nov-07 16:53N 32°39' W 117°18'0 0.0
2017-Nov-07 16:20N 32°39' W 117°18'0 0.0
2017-Nov-07 15:41N 32°39' W 117°18'0 0.0
2017-Nov-07 15:11N 32°39' W 117°18'0 0.0
2017-Nov-07 14:56N 32°39' W 117°18'0 0.0
2017-Nov-07 14:26N 32°39' W 117°18'0 0.0
2017-Nov-07 13:17N 32°39' W 117°18'0 0.0
2017-Nov-07 12:56N 32°39' W 117°18'0 0.0
2017-Nov-07 11:53N 32°39' W 117°18'0 0.0
2017-Nov-07 11:20N 32°39' W 117°18'0 0.0
2017-Nov-07 10:59N 32°39' W 117°18'0 0.0
2017-Nov-07 10:29N 32°39' W 117°18'0 0.0
2017-Nov-07 08:47N 32°39' W 117°18'0 0.0
2017-Nov-07 08:29N 32°39' W 117°18'0 0.0
2017-Nov-07 07:59N 32°39' W 117°18'0 0.0
2017-Nov-07 07:20N 32°39' W 117°18'0 0.0
2017-Nov-07 06:59N 32°39' W 117°18'0 0.1
2017-Nov-07 06:29N 32°39' W 117°18'0 0.0
2017-Nov-07 04:02N 32°39' W 117°18'0 0.0
2017-Nov-07 03:59N 32°39' W 117°18'0 0.0
2017-Nov-07 03:29N 32°39' W 117°18'0 0.1
2017-Nov-07 02:56N 32°39' W 117°18'0 0.0
2017-Nov-07 02:29N 32°39' W 117°18'0 0.0
2017-Nov-07 01:53N 32°39' W 117°18'0 0.0
2017-Nov-07 01:26N 32°39' W 117°18'0 0.0
2017-Nov-07 00:56N 32°39' W 117°18'0 0.0
2017-Nov-07 00:17N 32°39' W 117°18'0 0.0
2017-Nov-06 23:59N 32°39' W 117°18'0 0.0
2017-Nov-06 23:20N 32°39' W 117°18'0 0.1
2017-Nov-06 23:00N 32°39' W 117°18'0 0.1
2017-Nov-06 22:31N 32°39' W 117°18'0 0.2
2017-Nov-06 22:00N 32°39' W 117°18'0 0.8
2017-Nov-06 21:30N 32°39' W 117°18'1 1.1
2017-Nov-06 20:57N 32°39' W 117°19'1 2.4
2017-Nov-06 20:30N 32°39' W 117°18'  

Dump ship's entire track history